createdAt,value
2023-02-02T00:12:45.141Z,84.1
2023-02-02T00:32:45.116Z,84.8
2023-02-02T00:52:45.111Z,86.2
2023-02-02T01:12:45.079Z,85.9
2023-02-02T01:32:45.094Z,86.6
2023-02-02T01:52:52.160Z,85.8
2023-02-02T02:12:45.098Z,85.7
2023-02-02T02:32:45.133Z,85.9
2023-02-02T02:52:45.089Z,86.1
2023-02-02T03:12:45.095Z,86.7
2023-02-02T03:32:45.150Z,87.7
2023-02-02T03:52:45.096Z,92.0
2023-02-02T04:12:45.203Z,92.7
2023-02-02T04:32:45.108Z,93.0
2023-02-02T04:52:45.106Z,93.4
2023-02-02T05:12:45.130Z,93.5
2023-02-02T05:32:45.186Z,93.6
2023-02-02T05:52:45.112Z,93.7
2023-02-02T06:12:45.032Z,93.7
2023-02-02T06:32:45.051Z,93.7
2023-02-02T06:52:45.052Z,93.7
2023-02-02T07:12:45.063Z,93.7
2023-02-02T07:32:45.067Z,93.8
2023-02-02T07:52:45.135Z,93.9
2023-02-02T08:12:45.410Z,93.9
2023-02-02T08:32:45.205Z,94.0
2023-02-02T08:52:45.093Z,94.0
2023-02-02T09:12:44.998Z,94.1
2023-02-02T09:32:45.106Z,94.1
2023-02-02T09:52:45.052Z,94.1
2023-02-02T10:12:45.207Z,94.1
2023-02-02T10:32:45.084Z,94.1
2023-02-02T10:52:45.068Z,94.1
2023-02-02T11:12:45.077Z,94.1
2023-02-02T11:32:44.981Z,94.2
2023-02-02T11:52:44.986Z,94.2
2023-02-02T12:12:44.987Z,94.4
2023-02-02T12:32:45.015Z,94.5
2023-02-02T12:52:45.008Z,94.5
2023-02-02T13:12:45.024Z,94.6
2023-02-02T13:32:45.021Z,94.6
2023-02-02T13:52:45.180Z,94.7
2023-02-02T14:12:44.939Z,94.7
2023-02-02T14:32:44.951Z,94.7
2023-02-02T14:52:44.964Z,94.8
2023-02-02T15:12:44.961Z,94.9
2023-02-02T15:32:44.971Z,94.9
2023-02-02T15:52:44.983Z,94.9
2023-02-02T16:12:44.993Z,95.0
2023-02-02T16:32:45.001Z,95.0
2023-02-02T16:52:45.051Z,95.0
2023-02-02T17:12:44.950Z,94.9
2023-02-02T17:32:44.941Z,95.0
2023-02-02T17:52:44.931Z,94.9
2023-02-02T18:12:44.939Z,94.9
2023-02-02T18:32:44.935Z,94.9
2023-02-02T18:52:44.967Z,94.9
2023-02-02T19:12:44.971Z,95.0
2023-02-02T19:32:44.898Z,94.9
2023-02-02T19:52:44.893Z,95.0
2023-02-02T20:12:44.903Z,94.9
2023-02-02T20:32:44.921Z,94.9
2023-02-02T20:52:44.922Z,94.9
2023-02-02T21:12:44.943Z,94.9
2023-02-02T21:32:45.135Z,94.9
2023-02-02T21:52:45.030Z,94.9
2023-02-02T22:12:44.886Z,94.9
2023-02-02T22:32:44.887Z,94.9
2023-02-02T22:52:44.905Z,94.8
2023-02-02T23:12:44.895Z,94.8
2023-02-02T23:32:44.903Z,94.5
2023-02-02T23:52:44.957Z,94.1
